createdAt,value
2023-01-01T00:00:14.381Z,53.40
2023-01-01T00:02:42.425Z,53.57
2023-01-01T00:05:11.882Z,53.55
2023-01-01T00:07:39.937Z,53.42
2023-01-01T00:10:26.351Z,53.61
2023-01-01T00:12:54.376Z,53.50
2023-01-01T00:15:22.349Z,53.40
2023-01-01T00:17:50.304Z,53.33
2023-01-01T00:20:20.352Z,53.29
2023-01-01T00:22:56.485Z,53.34
2023-01-01T00:25:25.580Z,53.35
2023-01-01T00:27:53.581Z,53.28
2023-01-01T00:30:21.561Z,53.20
2023-01-01T00:32:54.980Z,51.46
2023-01-01T00:35:28.466Z,52.77
2023-01-01T00:37:59.004Z,52.74
2023-01-01T00:40:27.034Z,53.26
2023-01-01T00:42:55.159Z,53.21
2023-01-01T00:45:23.320Z,53.30
2023-01-01T00:47:52.884Z,53.16
2023-01-01T00:50:22.079Z,53.18
2023-01-01T00:52:51.428Z,53.20
2023-01-01T00:55:19.603Z,53.11
2023-01-01T00:57:47.656Z,52.94
2023-01-01T01:00:16.822Z,52.70
2023-01-01T01:02:44.861Z,52.92
2023-01-01T01:05:13.094Z,53.04
2023-01-01T01:07:41.291Z,52.97
2023-01-01T01:10:13.247Z,52.96
2023-01-01T01:12:41.419Z,52.80
2023-01-01T01:15:10.990Z,52.95
2023-01-01T01:17:38.982Z,52.76
2023-01-01T01:20:07.881Z,52.90
2023-01-01T01:22:36.092Z,52.78
2023-01-01T01:25:04.839Z,52.36
2023-01-01T01:27:34.449Z,52.31
2023-01-01T01:30:02.463Z,52.42
2023-01-01T01:32:30.427Z,52.49
2023-01-01T01:34:58.388Z,52.49
2023-01-01T01:37:27.619Z,52.22
2023-01-01T01:39:58.173Z,52.21
2023-01-01T01:42:26.240Z,52.05
2023-01-01T01:44:58.657Z,52.21
2023-01-01T01:47:32.500Z,52.09
2023-01-01T01:50:07.085Z,51.70
2023-01-01T01:52:37.507Z,51.54
2023-01-01T01:55:09.028Z,51.45
2023-01-01T01:57:38.802Z,51.49
2023-01-01T02:00:11.585Z,51.18
2023-01-01T02:02:49.492Z,51.39
2023-01-01T02:05:19.835Z,51.26
2023-01-01T02:07:48.651Z,51.22
2023-01-01T02:10:16.739Z,51.09
2023-01-01T02:12:44.991Z,51.00
2023-01-01T02:15:14.604Z,50.79
2023-01-01T02:18:01.493Z,50.75
2023-01-01T02:20:45.243Z,50.79
2023-01-01T02:23:46.257Z,50.80
2023-01-01T02:26:54.184Z,50.53
2023-01-01T02:29:31.584Z,50.60
2023-01-01T02:32:03.449Z,50.53
2023-01-01T02:34:36.712Z,50.58
2023-01-01T02:37:08.367Z,50.55
2023-01-01T02:39:41.165Z,50.38
2023-01-01T02:42:09.706Z,50.16
2023-01-01T02:44:42.781Z,50.16
2023-01-01T02:47:13.138Z,50.22
2023-01-01T02:49:50.305Z,50.31
2023-01-01T02:52:38.007Z,50.22
2023-01-01T02:55:18.911Z,50.07
2023-01-01T02:57:52.714Z,50.36
2023-01-01T03:00:28.453Z,50.05
2023-01-01T03:03:14.946Z,50.01
2023-01-01T03:06:09.905Z,49.93
2023-01-01T03:08:50.071Z,49.79
2023-01-01T03:11:20.889Z,49.72
2023-01-01T03:13:55.605Z,49.68
2023-01-01T03:16:30.070Z,49.72
2023-01-01T03:19:12.359Z,49.57
2023-01-01T03:21:47.160Z,49.65
2023-01-01T03:24:24.388Z,49.44
2023-01-01T03:26:59.627Z,49.66
2023-01-01T03:29:36.259Z,49.52
2023-01-01T03:32:08.653Z,49.41
2023-01-01T03:34:44.503Z,49.37
2023-01-01T03:37:18.834Z,49.30
2023-01-01T03:39:52.393Z,49.16
2023-01-01T03:42:28.033Z,49.13
2023-01-01T03:45:04.511Z,49.08
2023-01-01T03:47:34.511Z,49.17
2023-01-01T03:50:04.304Z,49.18
2023-01-01T03:52:41.073Z,48.88
2023-01-01T03:55:13.440Z,48.73
2023-01-01T03:57:51.375Z,48.91
2023-01-01T04:00:28.094Z,48.66
2023-01-01T04:03:00.652Z,48.66
2023-01-01T04:05:31.087Z,48.72
2023-01-01T04:08:03.278Z,48.76
2023-01-01T04:10:32.413Z,48.75
2023-01-01T04:13:03.817Z,48.75
2023-01-01T04:15:32.987Z,48.73
2023-01-01T04:18:02.681Z,48.64
2023-01-01T04:20:30.686Z,48.50
2023-01-01T04:22:59.306Z,48.68
2023-01-01T04:25:27.730Z,48.54
2023-01-01T04:27:56.156Z,48.35
2023-01-01T04:30:24.149Z,48.54
2023-01-01T04:32:52.288Z,48.45
2023-01-01T04:35:21.682Z,48.34
2023-01-01T04:37:49.618Z,48.41
2023-01-01T04:40:17.839Z,48.31
2023-01-01T04:42:48.107Z,48.27
2023-01-01T04:45:16.215Z,48.09
2023-01-01T04:47:44.606Z,48.35
2023-01-01T04:50:12.861Z,48.25
2023-01-01T04:52:43.324Z,48.17
2023-01-01T04:55:11.491Z,48.17
2023-01-01T04:57:42.549Z,48.34
2023-01-01T05:00:11.317Z,48.17
2023-01-01T05:02:39.413Z,48.07
2023-01-01T05:05:07.857Z,48.03
2023-01-01T05:07:35.863Z,48.06
2023-01-01T05:10:06.045Z,48.14
2023-01-01T05:12:34.124Z,47.80
2023-01-01T05:15:02.113Z,47.85
2023-01-01T05:17:30.601Z,48.07
2023-01-01T05:19:59.663Z,47.95
2023-01-01T05:22:27.668Z,47.95
2023-01-01T05:24:55.647Z,47.88
2023-01-01T05:27:26.199Z,47.87
2023-01-01T05:29:54.236Z,47.89
2023-01-01T05:32:22.275Z,47.88
2023-01-01T05:34:50.279Z,47.83
2023-01-01T05:37:18.385Z,47.83
2023-01-01T05:39:46.363Z,47.87
2023-01-01T05:42:15.563Z,47.82
2023-01-01T05:44:44.933Z,47.79
2023-01-01T05:47:13.462Z,47.77
2023-01-01T05:49:41.502Z,47.63
2023-01-01T05:52:09.529Z,47.84
2023-01-01T05:54:37.537Z,47.87
2023-01-01T05:57:05.481Z,47.65
2023-01-01T05:59:36.259Z,47.83
2023-01-01T06:02:05.644Z,47.72
2023-01-01T06:04:33.731Z,47.80
2023-01-01T06:07:01.707Z,47.69
2023-01-01T06:09:29.763Z,47.72
2023-01-01T06:12:00.807Z,47.82
2023-01-01T06:14:28.918Z,47.76
2023-01-01T06:16:56.950Z,47.79
2023-01-01T06:19:26.329Z,47.63
2023-01-01T06:21:54.341Z,47.73
2023-01-01T06:24:22.398Z,47.76
2023-01-01T06:26:50.420Z,47.60
2023-01-01T06:29:18.387Z,47.58
2023-01-01T06:31:46.489Z,47.48
2023-01-01T06:34:14.440Z,47.55
2023-01-01T06:36:46.620Z,47.61
2023-01-01T06:39:14.907Z,47.58
2023-01-01T06:41:45.328Z,47.49
2023-01-01T06:44:13.281Z,47.47
2023-01-01T06:46:43.338Z,47.52
2023-01-01T06:49:13.304Z,47.56
2023-01-01T06:51:42.847Z,47.46
2023-01-01T06:54:12.798Z,47.47
2023-01-01T06:56:41.072Z,47.53
2023-01-01T06:59:09.094Z,47.55
2023-01-01T07:01:40.105Z,47.52
2023-01-01T07:04:14.623Z,47.42
2023-01-01T07:06:43.121Z,47.32
2023-01-01T07:09:12.486Z,47.37
2023-01-01T07:11:40.472Z,47.24
2023-01-01T07:14:08.462Z,47.33
2023-01-01T07:16:36.469Z,47.09
2023-01-01T07:19:04.600Z,47.23
2023-01-01T07:21:34.813Z,47.04
2023-01-01T07:24:06.111Z,47.05
2023-01-01T07:26:35.570Z,47.05
2023-01-01T07:29:07.481Z,47.19
2023-01-01T07:31:40.889Z,46.97
2023-01-01T07:34:13.520Z,47.03
2023-01-01T07:36:41.983Z,47.03
2023-01-01T07:39:10.300Z,47.01
2023-01-01T07:41:39.628Z,46.58
2023-01-01T07:44:10.148Z,47.06
2023-01-01T07:46:38.464Z,46.92
2023-01-01T07:49:06.768Z,47.00
2023-01-01T07:51:34.853Z,46.91
2023-01-01T07:54:07.149Z,46.96
2023-01-01T07:56:36.355Z,47.00
2023-01-01T07:59:06.559Z,47.01
2023-01-01T08:01:37.310Z,46.81
2023-01-01T08:04:06.108Z,47.08
2023-01-01T08:06:34.107Z,46.77
2023-01-01T08:09:02.214Z,46.92
2023-01-01T08:11:30.506Z,46.91
2023-01-01T08:13:58.489Z,46.95
2023-01-01T08:16:29.285Z,46.96
2023-01-01T08:18:57.922Z,47.02
2023-01-01T08:21:26.003Z,46.95
2023-01-01T08:23:54.032Z,47.06
2023-01-01T08:26:31.213Z,46.81
2023-01-01T08:28:59.939Z,46.99
2023-01-01T08:31:29.327Z,47.01
2023-01-01T08:33:57.474Z,46.87
2023-01-01T08:36:26.362Z,47.00
2023-01-01T08:38:54.374Z,46.99
2023-01-01T08:41:22.443Z,46.91
2023-01-01T08:43:50.534Z,46.81
2023-01-01T08:46:20.792Z,46.91
2023-01-01T08:48:50.175Z,46.78
2023-01-01T08:51:18.291Z,46.68
2023-01-01T08:53:50.799Z,46.82
2023-01-01T08:56:20.432Z,46.75
2023-01-01T08:58:48.562Z,46.81
2023-01-01T09:01:16.832Z,46.95
2023-01-01T09:03:45.010Z,46.80
2023-01-01T09:06:14.942Z,46.76
2023-01-01T09:08:42.952Z,46.76
2023-01-01T09:11:23.262Z,46.94
2023-01-01T09:13:51.821Z,46.89
2023-01-01T09:16:20.117Z,46.95
2023-01-01T09:18:48.232Z,46.80
2023-01-01T09:21:17.700Z,46.85
2023-01-01T09:23:48.794Z,46.85
2023-01-01T09:26:16.886Z,46.80
2023-01-01T09:28:44.985Z,46.71
2023-01-01T09:31:13.091Z,46.95
2023-01-01T09:33:42.660Z,46.82
2023-01-01T09:36:29.489Z,46.94
2023-01-01T09:38:59.336Z,46.93
2023-01-01T09:41:39.096Z,46.95
2023-01-01T09:44:20.967Z,46.86
2023-01-01T09:46:49.699Z,47.02
2023-01-01T09:49:24.194Z,46.79
2023-01-01T09:52:01.167Z,46.94
2023-01-01T09:54:33.425Z,46.83
2023-01-01T09:57:02.554Z,46.87
2023-01-01T09:59:31.149Z,46.88
2023-01-01T10:02:13.677Z,46.91
2023-01-01T10:04:52.758Z,46.89
2023-01-01T10:07:30.230Z,46.82
2023-01-01T10:10:05.411Z,46.96
2023-01-01T10:12:43.945Z,47.04
2023-01-01T10:15:19.983Z,46.93
2023-01-01T10:17:50.307Z,47.56
2023-01-01T10:20:23.259Z,47.87
2023-01-01T10:22:58.730Z,48.19
2023-01-01T10:25:29.598Z,48.22
2023-01-01T10:28:00.941Z,48.48
2023-01-01T10:30:30.993Z,48.41
2023-01-01T10:33:00.135Z,49.23
2023-01-01T10:35:35.743Z,48.44
2023-01-01T10:38:05.806Z,49.25
2023-01-01T10:40:34.765Z,49.33
2023-01-01T10:43:07.682Z,49.59
2023-01-01T10:45:42.708Z,49.55
2023-01-01T10:48:16.849Z,49.38
2023-01-01T10:50:49.360Z,49.29
2023-01-01T10:53:22.989Z,49.28
2023-01-01T10:55:52.382Z,49.45
2023-01-01T10:58:28.202Z,49.39
2023-01-01T11:01:00.494Z,49.21
2023-01-01T11:03:28.814Z,49.31
2023-01-01T11:06:05.594Z,49.33
2023-01-01T11:08:39.688Z,49.37
2023-01-01T11:11:07.839Z,49.25
2023-01-01T11:13:36.085Z,49.51
2023-01-01T11:16:11.716Z,49.52
2023-01-01T11:18:39.904Z,49.42
2023-01-01T11:21:11.078Z,49.51
2023-01-01T11:23:41.401Z,49.45
2023-01-01T11:26:28.066Z,49.45
2023-01-01T11:29:02.480Z,49.64
2023-01-01T11:31:35.581Z,49.55
2023-01-01T11:34:07.231Z,49.64
2023-01-01T11:36:36.321Z,49.68
2023-01-01T11:39:17.518Z,49.60
2023-01-01T11:41:48.219Z,49.74
2023-01-01T11:44:30.190Z,49.71
2023-01-01T11:46:59.138Z,49.91
2023-01-01T11:49:30.181Z,50.06
2023-01-01T11:51:58.724Z,49.98
2023-01-01T11:54:38.119Z,50.06
2023-01-01T11:57:12.365Z,50.29
2023-01-01T11:59:48.586Z,51.04
2023-01-01T12:02:33.504Z,50.62
2023-01-01T12:05:11.672Z,51.18
2023-01-01T12:07:41.608Z,51.67
2023-01-01T12:10:22.570Z,51.62
2023-01-01T12:12:58.390Z,51.39
2023-01-01T12:15:36.405Z,51.35
2023-01-01T12:18:12.384Z,51.37
2023-01-01T12:20:45.415Z,51.59
2023-01-01T12:23:18.155Z,51.59
2023-01-01T12:25:55.000Z,51.75
2023-01-01T12:28:37.201Z,51.50
2023-01-01T12:31:17.222Z,51.73
2023-01-01T12:33:58.725Z,51.71
2023-01-01T12:36:37.863Z,51.93
2023-01-01T12:40:01.216Z,51.76
2023-01-01T12:42:42.262Z,51.75
2023-01-01T12:45:31.102Z,51.87
2023-01-01T12:48:08.785Z,51.91
2023-01-01T12:50:55.083Z,51.96
2023-01-01T12:53:34.908Z,51.87
2023-01-01T12:56:17.576Z,52.06
2023-01-01T12:58:57.241Z,51.99
2023-01-01T13:01:33.426Z,52.06
2023-01-01T13:04:06.748Z,52.03
2023-01-01T13:06:40.923Z,52.26
2023-01-01T13:09:14.955Z,52.08
2023-01-01T13:11:51.488Z,52.20
2023-01-01T13:14:21.008Z,52.03
2023-01-01T13:16:52.767Z,51.98
2023-01-01T13:19:32.621Z,52.26
2023-01-01T13:22:02.126Z,52.05
2023-01-01T13:24:30.237Z,52.16
2023-01-01T13:26:58.245Z,52.11
2023-01-01T13:29:43.872Z,52.13
2023-01-01T13:32:14.100Z,51.94
2023-01-01T13:35:00.965Z,52.06
2023-01-01T13:37:46.562Z,52.04
2023-01-01T13:40:52.997Z,52.15
2023-01-01T13:43:29.099Z,51.87
2023-01-01T13:46:14.708Z,51.87
2023-01-01T13:49:20.036Z,51.90
2023-01-01T13:52:11.747Z,51.84
2023-01-01T13:55:18.345Z,52.03
2023-01-01T13:58:21.353Z,52.44
2023-01-01T14:01:08.192Z,52.25
2023-01-01T14:03:42.422Z,52.17
2023-01-01T14:06:13.689Z,52.06
2023-01-01T14:08:41.789Z,52.22
2023-01-01T14:11:26.945Z,52.14
2023-01-01T14:13:55.257Z,52.28
2023-01-01T14:16:23.290Z,52.27
2023-01-01T14:18:57.303Z,52.26
2023-01-01T14:21:29.071Z,52.34
2023-01-01T14:24:00.336Z,52.33
2023-01-01T14:26:29.626Z,52.31
2023-01-01T14:28:59.599Z,52.40
2023-01-01T14:31:31.269Z,51.18
2023-01-01T14:34:02.435Z,52.31
2023-01-01T14:36:32.466Z,52.61
2023-01-01T14:39:01.761Z,53.06
2023-01-01T14:41:34.198Z,53.25
2023-01-01T14:44:07.436Z,53.23
2023-01-01T14:46:41.209Z,53.07
2023-01-01T14:49:18.051Z,52.94
2023-01-01T14:51:52.126Z,53.15
2023-01-01T14:54:21.924Z,53.17
2023-01-01T14:56:54.423Z,53.02
2023-01-01T14:59:27.563Z,52.88
2023-01-01T15:02:02.832Z,53.05
2023-01-01T15:04:32.433Z,52.74
2023-01-01T15:07:01.962Z,52.82
2023-01-01T15:09:32.503Z,53.11
2023-01-01T15:12:01.428Z,52.96
2023-01-01T15:14:32.000Z,52.91
2023-01-01T15:17:01.877Z,52.89
2023-01-01T15:19:30.036Z,53.01
2023-01-01T15:22:00.589Z,52.50
2023-01-01T15:24:30.496Z,52.67
2023-01-01T15:27:00.242Z,52.59
2023-01-01T15:29:31.293Z,52.86
2023-01-01T15:32:02.066Z,52.75
2023-01-01T15:34:34.916Z,52.66
2023-01-01T15:37:13.518Z,52.53
2023-01-01T15:39:50.881Z,52.33
2023-01-01T15:42:42.174Z,52.36
2023-01-01T15:45:21.431Z,52.35
2023-01-01T15:47:49.914Z,52.23
2023-01-01T15:50:23.677Z,52.10
2023-01-01T15:52:56.145Z,52.28
2023-01-01T15:55:27.350Z,52.14
2023-01-01T15:57:56.342Z,51.96
2023-01-01T16:00:30.585Z,51.30
2023-01-01T16:03:00.178Z,52.13
2023-01-01T16:05:31.433Z,52.09
2023-01-01T16:08:03.702Z,52.33
2023-01-01T16:10:32.436Z,52.43
2023-01-01T16:13:00.476Z,52.70
2023-01-01T16:15:28.491Z,52.73
2023-01-01T16:17:56.745Z,53.41
2023-01-01T16:20:27.443Z,54.79
2023-01-01T16:22:55.434Z,55.74
2023-01-01T16:25:24.871Z,56.24
2023-01-01T16:27:52.893Z,56.05
2023-01-01T16:30:26.213Z,55.22
2023-01-01T16:32:54.308Z,54.98
2023-01-01T16:35:22.475Z,55.90
2023-01-01T16:37:50.523Z,57.01
2023-01-01T16:40:18.647Z,56.64
2023-01-01T16:42:48.242Z,56.98
2023-01-01T16:45:19.613Z,57.89
2023-01-01T16:47:48.150Z,59.42
2023-01-01T16:50:16.410Z,61.97
2023-01-01T16:52:45.309Z,62.55
2023-01-01T16:55:13.709Z,61.82
2023-01-01T16:57:43.442Z,62.03
2023-01-01T17:00:14.273Z,61.71
2023-01-01T17:02:42.904Z,61.91
2023-01-01T17:05:11.566Z,61.93
2023-01-01T17:07:39.638Z,62.21
2023-01-01T17:10:08.221Z,62.23
2023-01-01T17:12:36.426Z,62.20
2023-01-01T17:15:04.645Z,62.22
2023-01-01T17:17:34.184Z,62.12
2023-01-01T17:20:02.197Z,61.86
2023-01-01T17:22:34.175Z,61.67
2023-01-01T17:25:02.887Z,62.00
2023-01-01T17:27:30.957Z,62.05
2023-01-01T17:29:59.039Z,62.38
2023-01-01T17:32:27.102Z,62.40
2023-01-01T17:34:56.451Z,61.86
2023-01-01T17:37:24.495Z,61.21
2023-01-01T17:39:52.518Z,60.94
2023-01-01T17:42:20.921Z,60.64
2023-01-01T17:44:48.949Z,61.02
2023-01-01T17:47:16.954Z,60.98
2023-01-01T17:49:48.627Z,60.74
2023-01-01T17:52:18.092Z,60.98
2023-01-01T17:54:46.166Z,59.05
2023-01-01T17:57:17.431Z,57.52
2023-01-01T17:59:45.781Z,58.02
2023-01-01T18:02:16.477Z,58.06
2023-01-01T18:04:45.165Z,58.76
2023-01-01T18:07:13.250Z,58.06
2023-01-01T18:09:42.658Z,57.66
2023-01-01T18:12:10.664Z,57.33
2023-01-01T18:14:38.671Z,56.84
2023-01-01T18:17:06.697Z,57.20
2023-01-01T18:19:35.340Z,57.20
2023-01-01T18:22:03.361Z,56.94
2023-01-01T18:24:31.737Z,57.14
2023-01-01T18:27:01.247Z,56.59
2023-01-01T18:29:29.326Z,56.18
2023-01-01T18:31:57.342Z,55.95
2023-01-01T18:34:28.952Z,56.47
2023-01-01T18:36:57.108Z,56.46
2023-01-01T18:39:29.080Z,55.97
2023-01-01T18:42:15.284Z,56.03
2023-01-01T18:44:43.527Z,55.79
2023-01-01T18:47:16.056Z,55.97
2023-01-01T18:49:49.708Z,56.01
2023-01-01T18:52:26.623Z,56.01
2023-01-01T18:55:05.383Z,55.87
2023-01-01T18:57:35.223Z,55.75
2023-01-01T19:00:16.425Z,55.65
2023-01-01T19:02:46.912Z,55.63
2023-01-01T19:05:24.371Z,55.80
2023-01-01T19:07:58.446Z,55.87
2023-01-01T19:10:33.505Z,55.73
2023-01-01T19:13:14.509Z,55.67
2023-01-01T19:15:42.647Z,55.71
2023-01-01T19:18:16.389Z,55.72
2023-01-01T19:20:47.319Z,55.56
2023-01-01T19:23:21.507Z,55.79
2023-01-01T19:25:51.039Z,55.63
2023-01-01T19:28:35.254Z,55.86
2023-01-01T19:31:05.190Z,55.70
2023-01-01T19:33:33.289Z,55.68
2023-01-01T19:36:01.412Z,55.69
2023-01-01T19:38:29.741Z,55.59
2023-01-01T19:40:58.065Z,55.74
2023-01-01T19:43:26.067Z,55.62
2023-01-01T19:45:55.553Z,55.65
2023-01-01T19:48:23.695Z,55.57
2023-01-01T19:50:52.340Z,55.62
2023-01-01T19:53:20.409Z,55.55
2023-01-01T19:55:48.452Z,55.54
2023-01-01T19:58:16.436Z,55.48
2023-01-01T20:00:44.512Z,55.64
2023-01-01T20:06:02.037Z,55.66
2023-01-01T20:08:31.049Z,55.64
2023-01-01T20:10:59.527Z,55.66
2023-01-01T20:13:30.517Z,55.66
2023-01-01T20:15:58.606Z,55.80
2023-01-01T20:18:30.123Z,55.46
2023-01-01T20:21:22.050Z,55.48
2023-01-01T20:23:53.893Z,55.47
2023-01-01T20:26:23.701Z,55.43
2023-01-01T20:29:09.566Z,55.55
2023-01-01T20:31:37.698Z,55.61
2023-01-01T20:34:07.230Z,55.41
2023-01-01T20:36:51.986Z,55.46
2023-01-01T20:39:20.002Z,55.53
2023-01-01T20:41:48.061Z,55.47
2023-01-01T20:44:16.070Z,55.57
2023-01-01T20:46:45.941Z,55.45
2023-01-01T20:49:17.149Z,55.49
2023-01-01T20:51:45.633Z,55.70
2023-01-01T20:54:13.815Z,55.48
2023-01-01T20:56:41.842Z,55.65
2023-01-01T20:59:33.576Z,55.54
2023-01-01T21:02:00.804Z,55.44
2023-01-01T21:04:33.211Z,55.56
2023-01-01T21:07:03.507Z,54.49
2023-01-01T21:09:31.496Z,54.85
2023-01-01T21:12:01.060Z,55.72
2023-01-01T21:14:32.155Z,55.83
2023-01-01T21:17:00.221Z,55.76
2023-01-01T21:19:32.390Z,56.29
2023-01-01T21:22:00.263Z,56.35
2023-01-01T21:24:30.442Z,55.91
2023-01-01T21:27:06.858Z,56.03
2023-01-01T21:29:36.104Z,56.01
2023-01-01T21:32:22.307Z,55.90
2023-01-01T21:34:53.400Z,56.20
2023-01-01T21:37:42.945Z,55.96
2023-01-01T21:40:36.925Z,55.98
2023-01-01T21:43:28.344Z,55.73
2023-01-01T21:45:59.495Z,55.69
2023-01-01T21:48:32.083Z,55.57
2023-01-01T21:51:02.728Z,55.62
2023-01-01T21:53:33.767Z,55.74
2023-01-01T21:56:18.768Z,55.76
2023-01-01T21:59:04.438Z,55.91
2023-01-01T22:01:38.980Z,55.69
2023-01-01T22:04:20.870Z,55.74
2023-01-01T22:06:52.593Z,55.77
2023-01-01T22:09:25.625Z,55.79
2023-01-01T22:11:57.845Z,55.54
2023-01-01T22:14:27.636Z,55.72
2023-01-01T22:16:56.938Z,55.00
2023-01-01T22:19:28.884Z,55.40
2023-01-01T22:22:01.314Z,55.19
2023-01-01T22:24:34.099Z,55.26
2023-01-01T22:27:33.084Z,55.51
2023-01-01T22:30:32.225Z,55.12
2023-01-01T22:33:01.796Z,55.17
2023-01-01T22:35:34.181Z,55.14
2023-01-01T22:38:07.466Z,55.33
2023-01-01T22:40:38.016Z,55.27
2023-01-01T22:43:11.226Z,55.12
2023-01-01T22:45:43.110Z,55.07
2023-01-01T22:48:22.827Z,55.16
2023-01-01T22:50:51.473Z,55.11
2023-01-01T22:53:21.080Z,55.27
2023-01-01T22:55:49.153Z,55.19
2023-01-01T22:58:17.132Z,53.93
2023-01-01T23:00:48.478Z,54.69
2023-01-01T23:03:16.466Z,54.89
2023-01-01T23:05:44.522Z,54.95
2023-01-01T23:08:12.630Z,54.80
2023-01-01T23:10:42.008Z,54.97
2023-01-01T23:13:27.234Z,54.97
2023-01-01T23:16:04.202Z,54.76
2023-01-01T23:18:34.633Z,54.80
2023-01-01T23:21:07.770Z,54.93
2023-01-01T23:23:37.137Z,55.06
2023-01-01T23:26:08.264Z,54.93
2023-01-01T23:28:37.598Z,55.04
2023-01-01T23:31:08.416Z,54.59
2023-01-01T23:33:36.961Z,54.78
2023-01-01T23:36:05.958Z,54.91
2023-01-01T23:38:34.571Z,54.67
2023-01-01T23:41:02.678Z,54.88
2023-01-01T23:43:33.018Z,54.80
2023-01-01T23:46:02.535Z,54.78
2023-01-01T23:48:31.085Z,54.93
2023-01-01T23:50:59.532Z,54.72
2023-01-01T23:53:32.543Z,54.91
2023-01-01T23:56:00.583Z,54.90
2023-01-01T23:58:30.947Z,55.01
